Time;durP1;ratioP1;P1;durP2;ratioP2;P2;SDS_P1;SDS_P2;PMS_P1;PMS_P2;Temp;Humidity;BMP_temperature;BMP_pressure;BME280_temperature;BME280_humidity;BME280_pressure;Samples;Min_cycle;Max_cycle;Signal;HPM_P1;HPM_P2
2022/10/04 00:00:30;;;;;;;3.03;1.90;;;9.40;99.90;8.70;100117;;;;607202;237;24002;-83
2022/10/04 00:03:07;;;;;;;1.80;1.70;;;9.40;99.90;8.70;100113;;;;596490;238;24054;-81
2022/10/04 00:05:35;;;;;;;2.23;1.90;;;9.40;99.90;8.70;100120;;;;606621;237;24141;-82
2022/10/04 00:08:24;;;;;;;2.00;1.90;;;9.40;99.90;8.80;100123;;;;598715;238;23996;-82
2022/10/04 00:11:01;;;;;;;1.90;1.73;;;9.50;99.90;8.80;100119;;;;606131;237;24044;-83
2022/10/04 00:13:30;;;;;;;2.40;2.07;;;9.50;99.90;8.80;100120;;;;602057;237;24054;-81
2022/10/04 00:16:00;;;;;;;2.30;2.10;;;9.50;99.90;8.80;100115;;;;598471;238;24013;-83
2022/10/04 00:18:42;;;;;;;3.87;1.80;;;9.50;99.90;8.80;100114;;;;597356;238;24061;-84
2022/10/04 00:21:09;;;;;;;3.10;1.70;;;9.50;99.90;8.90;100123;;;;607087;237;24014;-82
2022/10/04 00:23:37;;;;;;;2.03;1.83;;;9.60;99.90;8.90;100117;;;;599668;238;24020;-83
2022/10/04 00:26:08;;;;;;;1.73;1.63;;;9.60;99.90;8.90;100122;;;;598100;238;24003;-82
2022/10/04 00:28:39;;;;;;;3.10;1.50;;;9.70;99.90;9.00;100117;;;;599455;238;24085;-82
2022/10/04 00:31:10;;;;;;;3.27;2.00;;;9.70;99.90;9.00;100126;;;;597768;238;24010;-83
2022/10/04 00:33:43;;;;;;;1.93;1.73;;;9.70;99.90;9.00;100126;;;;597867;238;24049;-83
2022/10/04 00:36:23;;;;;;;2.47;1.87;;;9.70;99.90;9.00;100120;;;;597998;238;24082;-83
2022/10/04 00:39:06;;;;;;;4.13;1.70;;;9.70;99.90;9.00;100125;;;;597864;238;25123;-83
2022/10/04 00:41:46;;;;;;;2.27;2.07;;;9.70;99.90;9.00;100120;;;;594985;238;24025;-83
2022/10/04 00:44:32;;;;;;;4.57;2.10;;;9.70;99.90;8.90;100115;;;;597644;238;24018;-84
2022/10/04 00:47:00;;;;;;;1.93;1.83;;;9.70;99.90;8.90;100108;;;;597241;238;24018;-83
2022/10/04 00:49:39;;;;;;;1.73;1.63;;;9.60;99.90;8.80;100121;;;;597433;238;24028;-83
2022/10/04 00:52:12;;;;;;;1.90;1.80;;;9.60;99.90;8.80;100119;;;;606947;236;24037;-83
2022/10/04 00:54:43;;;;;;;3.47;2.20;;;9.40;99.90;8.70;100113;;;;597461;238;24086;-82
2022/10/04 00:57:12;;;;;;;2.30;2.10;;;9.40;99.90;8.70;100117;;;;606984;237;24069;-83
2022/10/04 00:59:42;;;;;;;8.30;2.53;;;9.40;99.90;8.60;100118;;;;606671;237;24080;-81
2022/10/04 01:02:31;;;;;;;4.03;2.27;;;9.30;99.90;8.50;100114;;;;595051;238;24002;-83
2022/10/04 01:05:05;;;;;;;3.87;2.20;;;9.20;99.90;8.50;100103;;;;598254;238;24007;-82
2022/10/04 01:07:38;;;;;;;3.57;2.30;;;9.20;99.90;8.50;100095;;;;607225;237;24030;-82
2022/10/04 01:10:21;;;;;;;2.23;2.13;;;9.20;99.90;8.50;100099;;;;597910;238;24012;-83
2022/10/04 01:13:07;;;;;;;2.73;2.10;;;9.20;99.90;8.50;100099;;;;596794;238;24020;-83
2022/10/04 01:15:56;;;;;;;2.10;1.90;;;9.20;99.90;8.50;100107;;;;594357;238;24084;-82
2022/10/04 01:18:25;;;;;;;2.03;1.80;;;9.20;99.90;8.50;100103;;;;597377;238;24003;-82
2022/10/04 01:20:53;;;;;;;2.20;2.10;;;9.20;99.90;8.50;100110;;;;596809;238;24017;-82
2022/10/04 01:23:57;;;;;;;2.03;1.93;;;9.20;99.90;8.50;100099;;;;606511;237;24073;-82
2022/10/04 01:26:35;;;;;;;4.20;2.07;;;9.20;99.90;8.50;100113;;;;598438;237;24007;-82
2022/10/04 01:29:25;;;;;;;2.37;2.27;;;9.20;99.90;8.40;100115;;;;597680;238;24055;-82
2022/10/04 01:31:56;;;;;;;2.40;2.20;;;9.10;99.90;8.40;100117;;;;606986;237;23998;-82
2022/10/04 01:34:25;;;;;;;2.47;2.37;;;9.10;99.90;8.40;100110;;;;607460;236;24047;-82
2022/10/04 01:36:52;;;;;;;2.50;2.30;;;9.10;99.90;8.40;100115;;;;607369;236;24086;-82
2022/10/04 01:39:22;;;;;;;3.10;2.30;;;9.10;99.90;8.40;100124;;;;599033;238;24035;-81
2022/10/04 01:42:00;;;;;;;2.37;2.17;;;9.10;99.90;8.40;100124;;;;599262;238;24026;-83
2022/10/04 01:44:54;;;;;;;2.60;2.30;;;9.10;99.90;8.40;100111;;;;597654;238;23995;-83
2022/10/04 01:47:38;;;;;;;5.00;2.50;;;9.10;99.90;8.40;100111;;;;597233;238;24002;-83
2022/10/04 01:50:18;;;;;;;4.33;2.37;;;9.10;99.90;8.40;100113;;;;598231;238;24064;-83
2022/10/04 01:52:46;;;;;;;2.17;2.00;;;9.10;99.90;8.30;100115;;;;602904;237;24031;-83
2022/10/04 01:55:20;;;;;;;2.10;2.00;;;9.00;99.90;8.30;100122;;;;606921;237;24121;-83
2022/10/04 01:57:48;;;;;;;3.13;2.73;;;9.00;99.90;8.30;100116;;;;607156;237;24008;-83
2022/10/04 02:00:19;;;;;;;2.60;2.40;;;9.00;99.90;8.30;100117;;;;607106;237;24009;-83
2022/10/04 02:02:58;;;;;;;1.93;1.83;;;9.00;99.90;8.20;100120;;;;597724;238;24097;-83
2022/10/04 02:05:39;;;;;;;2.60;2.37;;;9.00;99.90;8.20;100118;;;;598190;238;24078;-82
2022/10/04 02:08:06;;;;;;;2.17;1.90;;;8.90;99.90;8.20;100128;;;;607232;237;24052;-83
2022/10/04 02:10:38;;;;;;;5.40;2.40;;;8.90;99.90;8.20;100116;;;;606821;237;24039;-83
2022/10/04 02:13:02;;;;;;;3.27;2.07;;;8.90;99.90;8.20;100122;;;;607179;237;24049;-83
2022/10/04 02:15:34;;;;;;;3.33;2.13;;;8.90;99.90;8.20;100120;;;;607305;237;23999;-82
2022/10/04 02:18:03;;;;;;;2.90;2.30;;;8.90;99.90;8.10;100120;;;;597414;238;24026;-82
2022/10/04 02:20:31;;;;;;;2.93;2.63;;;8.90;99.90;8.10;100118;;;;595104;238;24005;-83
2022/10/04 02:22:58;;;;;;;3.37;1.93;;;8.80;99.90;8.10;100112;;;;595027;238;24029;-83
2022/10/04 02:25:26;;;;;;;2.13;2.03;;;8.80;99.90;8.10;100112;;;;606808;237;24061;-82
2022/10/04 02:27:56;;;;;;;3.67;2.70;;;8.80;99.90;8.10;100119;;;;602258;238;24034;-83
2022/10/04 02:30:21;;;;;;;2.80;2.60;;;8.80;99.90;8.00;100115;;;;607018;237;24070;-83
2022/10/04 02:32:59;;;;;;;2.80;2.70;;;8.80;99.90;8.00;100115;;;;602052;238;24016;-83
2022/10/04 02:35:37;;;;;;;2.73;2.40;;;8.70;99.90;8.00;100124;;;;606824;237;24018;-83
2022/10/04 02:38:26;;;;;;;2.70;2.50;;;8.70;99.90;8.00;100119;;;;598752;237;24044;-83
2022/10/04 02:41:16;;;;;;;3.60;3.40;;;8.70;99.90;8.00;100118;;;;607613;236;24082;-82
2022/10/04 02:43:58;;;;;;;4.27;3.77;;;8.70;99.90;8.00;100119;;;;598095;238;24004;-84
2022/10/04 02:46:41;;;;;;;6.33;4.50;;;8.70;99.90;8.00;100118;;;;598455;238;24077;-82
2022/10/04 02:49:27;;;;;;;5.70;4.83;;;8.70;99.90;8.00;100127;;;;598589;237;24007;-82
2022/10/04 02:52:15;;;;;;;7.83;5.60;;;8.70;99.90;8.00;100128;;;;595314;238;24030;-82
2022/10/04 02:54:46;;;;;;;5.73;4.80;;;8.70;99.90;8.00;100126;;;;597605;238;24008;-83
2022/10/04 02:57:21;;;;;;;5.10;4.70;;;8.70;99.90;8.00;100125;;;;597511;238;24066;-83
2022/10/04 02:59:52;;;;;;;6.20;4.80;;;8.70;99.90;8.00;100130;;;;597766;238;24026;-84
2022/10/04 03:02:26;;;;;;;5.13;3.70;;;8.70;99.90;8.00;100132;;;;597706;238;24028;-83
2022/10/04 03:04:54;;;;;;;4.97;4.47;;;8.70;99.90;7.90;100132;;;;597492;238;24010;-83
2022/10/04 03:07:21;;;;;;;5.00;3.70;;;8.70;99.90;7.90;100132;;;;606802;237;24008;-82
2022/10/04 03:09:52;;;;;;;4.07;3.47;;;8.60;99.90;8.00;100125;;;;607242;237;23957;-82
2022/10/04 03:12:21;;;;;;;6.43;3.90;;;8.70;99.90;7.90;100122;;;;607488;237;24017;-82
2022/10/04 03:14:48;;;;;;;6.10;4.30;;;8.70;99.90;7.90;100122;;;;598073;238;24010;-83
2022/10/04 03:17:16;;;;;;;6.03;4.47;;;8.70;99.90;7.90;100123;;;;607146;237;24025;-83
2022/10/04 03:19:44;;;;;;;4.03;3.27;;;8.60;99.90;7.90;100126;;;;606781;237;23995;-82
2022/10/04 03:22:12;;;;;;;5.73;3.83;;;8.60;99.90;7.90;100117;;;;606975;237;24055;-83
2022/10/04 03:24:45;;;;;;;3.73;3.27;;;8.60;99.90;7.90;100131;;;;596995;238;24052;-82
2022/10/04 03:27:10;;;;;;;5.10;4.40;;;8.60;99.90;7.90;100138;;;;594501;238;24015;-83
2022/10/04 03:29:38;;;;;;;8.77;3.80;;;8.60;99.90;7.80;100122;;;;605992;237;24006;-83
2022/10/04 03:32:24;;;;;;;11.40;4.50;;;8.60;99.90;7.80;100137;;;;606504;237;24065;-82
2022/10/04 03:34:52;;;;;;;6.40;3.20;;;8.60;99.90;7.80;100129;;;;596818;238;24015;-84
2022/10/04 03:37:20;;;;;;;3.50;3.20;;;8.60;99.90;7.80;100130;;;;606169;237;24028;-83
2022/10/04 03:39:48;;;;;;;4.23;3.63;;;8.60;99.90;7.90;100131;;;;594346;238;24070;-83
2022/10/04 03:42:22;;;;;;;4.90;3.60;;;8.60;99.90;7.90;100135;;;;596871;238;24098;-83
2022/10/04 03:45:08;;;;;;;4.73;3.63;;;8.60;99.90;7.90;100136;;;;606075;237;23999;-83
2022/10/04 03:47:36;;;;;;;7.70;3.90;;;8.60;99.90;7.90;100142;;;;605410;237;24046;-83
2022/10/04 03:50:07;;;;;;;4.20;3.43;;;8.60;99.90;7.90;100146;;;;608007;236;24010;-83
2022/10/04 03:52:37;;;;;;;4.10;3.80;;;8.60;99.90;7.90;100141;;;;606650;236;24011;-82
2022/10/04 03:55:02;;;;;;;4.27;3.20;;;8.60;99.90;7.90;100143;;;;607531;236;24100;-81
2022/10/04 03:57:30;;;;;;;3.60;3.30;;;8.60;99.90;7.90;100145;;;;607300;237;24006;-83
2022/10/04 03:59:58;;;;;;;4.90;3.37;;;8.60;99.90;7.90;100146;;;;607986;237;24003;-83
2022/10/04 04:02:32;;;;;;;4.10;3.27;;;8.60;99.90;7.90;100152;;;;603002;238;24013;-83
2022/10/04 04:05:02;;;;;;;4.63;3.00;;;8.60;99.90;7.90;100155;;;;598365;238;24021;-83
2022/10/04 04:07:30;;;;;;;4.77;3.33;;;8.60;99.90;7.90;100154;;;;607165;237;24034;-82
2022/10/04 04:10:02;;;;;;;6.67;3.40;;;8.60;99.90;7.90;100156;;;;605547;237;24026;-83
2022/10/04 04:12:35;;;;;;;6.67;3.90;;;8.60;99.90;7.90;100158;;;;598212;238;24001;-82
2022/10/04 04:15:03;;;;;;;4.97;4.27;;;8.60;99.90;7.90;100153;;;;597161;238;24094;-83
2022/10/04 04:17:34;;;;;;;4.00;3.40;;;8.60;99.90;7.90;100169;;;;594734;238;24024;-83
2022/10/04 04:20:02;;;;;;;4.27;3.20;;;8.60;99.90;7.90;100157;;;;606376;237;24043;-83
2022/10/04 04:22:34;;;;;;;3.50;3.20;;;8.60;99.90;7.90;100163;;;;606550;237;24055;-84
2022/10/04 04:24:58;;;;;;;5.77;3.40;;;8.60;99.90;7.90;100162;;;;596993;238;24024;-83
2022/10/04 04:27:26;;;;;;;5.83;3.30;;;8.60;99.90;7.90;100166;;;;605512;237;24053;-84
2022/10/04 04:29:57;;;;;;;12.07;3.33;;;8.60;99.90;7.90;100159;;;;596204;238;24020;-84
2022/10/04 04:32:27;;;;;;;4.23;2.57;;;8.60;99.90;7.90;100174;;;;594046;238;24032;-84
2022/10/04 04:34:52;;;;;;;4.73;3.17;;;8.60;99.90;7.90;100178;;;;606151;237;24025;-84
2022/10/04 04:37:20;;;;;;;8.10;3.47;;;8.60;99.90;7.90;100182;;;;594055;238;24029;-83
2022/10/04 04:39:54;;;;;;;6.63;3.63;;;8.60;99.90;7.90;100179;;;;596526;238;23994;-82
2022/10/04 04:42:20;;;;;;;6.13;3.60;;;8.60;99.90;7.90;100168;;;;606543;237;24021;-83
2022/10/04 04:45:06;;;;;;;6.33;3.03;;;8.60;99.90;7.90;100177;;;;605984;237;24034;-84
2022/10/04 04:47:45;;;;;;;6.33;3.27;;;8.60;99.90;7.80;100186;;;;605627;237;24059;-83
2022/10/04 04:50:29;;;;;;;4.03;3.50;;;8.60;99.90;7.90;100194;;;;596572;238;24054;-83
2022/10/04 04:53:08;;;;;;;3.00;2.80;;;8.60;99.90;7.90;100192;;;;597536;238;24057;-80
2022/10/04 04:55:46;;;;;;;6.22;4.70;;;8.60;99.90;8.00;100195;;;;601488;237;34801;-83
2022/10/04 04:58:21;;;;;;;4.10;3.20;;;8.70;99.90;8.00;100194;;;;607026;237;24026;-82
2022/10/04 05:01:01;;;;;;;4.77;3.40;;;8.70;99.90;8.00;100199;;;;592722;237;24036;-81
2022/10/04 05:03:33;;;;;;;6.60;3.97;;;8.70;99.90;8.00;100201;;;;599142;238;24006;-81
2022/10/04 05:06:03;;;;;;;5.03;3.47;;;8.70;99.90;8.00;100194;;;;607562;236;24008;-81
2022/10/04 05:08:34;;;;;;;4.10;3.37;;;8.70;99.90;8.00;100197;;;;607540;237;24058;-82
2022/10/04 05:11:05;;;;;;;5.33;3.07;;;8.70;99.90;8.00;100197;;;;606817;236;24061;-83
2022/10/04 05:13:53;;;;;;;5.70;3.73;;;8.70;99.90;8.00;100198;;;;607202;236;24061;-81
2022/10/04 05:16:42;;;;;;;3.33;3.03;;;8.70;99.90;8.00;100198;;;;607071;237;24030;-82
2022/10/04 05:19:30;;;;;;;7.57;3.40;;;8.80;99.90;8.10;100200;;;;597760;238;24021;-81
2022/10/04 05:21:56;;;;;;;3.73;3.40;;;8.80;99.90;8.10;100205;;;;606517;235;24003;-82
2022/10/04 05:24:29;;;;;;;5.20;3.40;;;8.80;99.90;8.20;100204;;;;606414;237;24012;-82
2022/10/04 05:27:00;;;;;;;8.20;3.23;;;8.90;99.90;8.20;100209;;;;607076;237;24064;-82
2022/10/04 05:29:28;;;;;;;3.37;3.07;;;8.90;99.90;8.30;100202;;;;598938;238;24026;-82
2022/10/04 05:32:11;;;;;;;4.53;3.53;;;9.00;99.90;8.40;100213;;;;607153;237;24016;-82
2022/10/04 05:34:39;;;;;;;7.07;4.45;;;9.00;99.90;8.50;100212;;;;591619;238;34875;-83
2022/10/04 05:37:09;;;;;;;9.87;3.43;;;9.20;99.90;8.60;100215;;;;606995;236;24008;-82
2022/10/04 05:39:47;;;;;;;6.93;3.63;;;9.30;99.90;8.70;100211;;;;594102;238;24107;-82
2022/10/04 05:42:32;;;;;;;4.67;3.37;;;9.30;99.90;8.70;100216;;;;596999;238;24010;-82
2022/10/04 05:45:00;;;;;;;3.73;3.30;;;9.40;99.90;8.80;100221;;;;596322;238;24049;-82
2022/10/04 05:47:28;;;;;;;3.93;3.50;;;9.50;99.90;8.90;100234;;;;596518;238;24066;-81
2022/10/04 05:49:56;;;;;;;4.43;2.90;;;9.50;99.90;8.90;100230;;;;606484;237;24059;-83
2022/10/04 05:52:36;;;;;;;6.80;3.67;;;9.60;99.90;9.00;100234;;;;606608;237;24061;-82
2022/10/04 05:55:13;;;;;;;3.63;3.23;;;9.70;99.90;9.10;100232;;;;606310;234;24029;-82
2022/10/04 05:58:08;;;;;;;5.30;2.53;;;9.80;99.90;9.30;100237;;;;585611;238;24155;-82
2022/10/04 06:00:35;;;;;;;4.17;3.77;;;9.90;99.90;9.30;100242;;;;596257;238;24132;-82
2022/10/04 06:03:18;;;;;;;4.10;3.50;;;10.00;99.90;9.50;100248;;;;596174;238;24025;-82
2022/10/04 06:05:49;;;;;;;6.37;3.40;;;10.90;99.90;10.60;100249;;;;593805;238;24051;-83
2022/10/04 06:08:41;;;;;;;6.57;4.07;;;10.90;99.90;12.40;100256;;;;590105;239;24070;-83
2022/10/04 06:11:18;;;;;;;5.37;4.70;;;12.60;99.90;14.10;100262;;;;602234;233;23977;-83
2022/10/04 06:17:15;;;;;;;5.67;3.90;;;15.80;99.90;17.20;100286;;;;551773;260;24194;-78
2022/10/04 06:20:28;;;;;;;6.63;5.10;;;17.30;99.90;19.10;100288;;;;543150;260;24179;-82
2022/10/04 06:23:00;;;;;;;3.33;2.83;;;20.90;99.90;20.80;100295;;;;561031;256;24134;-81
2022/10/04 06:25:31;;;;;;;7.40;4.07;;;20.80;99.90;21.70;100282;;;;552339;256;24136;-83
2022/10/04 06:28:16;;;;;;;4.27;2.53;;;21.90;99.90;22.60;100280;;;;560805;256;24124;-84
2022/10/04 06:31:24;;;;;;;8.13;2.70;;;22.80;99.90;22.50;100287;;;;552651;256;24119;-85
2022/10/04 06:34:13;;;;;;;3.77;2.23;;;23.00;99.90;23.40;100281;;;;561200;255;24127;-86
2022/10/04 06:36:59;;;;;;;2.80;2.00;;;23.70;99.90;24.40;100287;;;;560283;250;24116;-85
2022/10/04 06:39:39;;;;;;;1.87;1.60;;;24.60;99.90;25.40;100291;;;;542986;261;23162;-77
2022/10/04 06:42:38;;;;;;;3.20;2.10;;;25.50;98.40;26.60;100292;;;;542358;261;23157;-85
2022/10/04 06:45:45;;;;;;;2.30;1.90;;;26.60;94.50;25.20;100296;;;;543432;261;23182;-84
2022/10/04 06:48:40;;;;;;;2.30;2.10;;;26.10;90.00;23.50;100298;;;;552399;256;23155;-80
2022/10/04 06:51:51;;;;;;;4.30;2.10;;;24.50;91.90;24.50;100309;;;;552945;256;23143;-82
2022/10/04 06:54:34;;;;;;;5.63;2.43;;;24.70;91.70;26.00;100317;;;;552551;255;23175;-76
2022/10/04 06:57:10;;;;;;;1.87;1.77;;;25.90;89.50;26.90;100316;;;;559984;256;23115;-76
2022/10/04 07:00:19;;;;;;;3.57;3.13;;;27.60;78.30;27.60;100323;;;;552329;256;23144;-77
2022/10/04 07:02:52;;;;;;;3.87;2.80;;;27.50;78.20;28.40;100335;;;;542325;261;24148;-78
2022/10/04 07:05:45;;;;;;;3.83;1.80;;;28.00;70.80;27.50;100335;;;;547348;261;23201;-77
2022/10/04 07:08:35;;;;;;;14.53;4.60;;;28.00;70.80;28.00;100336;;;;554516;256;23119;-78
2022/10/04 07:11:14;;;;;;;4.73;1.90;;;28.20;70.70;27.90;100337;;;;542359;261;24171;-77
2022/10/04 07:13:57;;;;;;;3.43;1.97;;;28.20;69.00;27.90;100352;;;;550301;258;23150;-77
2022/10/04 07:16:46;;;;;;;16.17;5.28;;;28.30;68.90;28.20;100351;;;;536433;262;23197;-78
2022/10/04 07:19:22;;;;;;;3.78;1.90;;;28.50;68.20;28.10;100352;;;;541314;261;23192;-76
2022/10/04 07:21:56;;;;;;;1.00;1.00;;;28.40;67.10;29.00;100361;;;;542302;261;24189;-76
2022/10/04 07:24:52;;;;;;;2.03;1.08;;;29.50;63.90;29.30;100371;;;;543028;260;24179;-77
2022/10/04 07:27:32;;;;;;;2.75;1.40;;;29.40;63.80;29.10;100387;;;;543477;260;23221;-76
2022/10/04 07:30:00;;;;;;;1.83;1.48;;;29.40;63.00;28.80;100388;;;;551010;260;24211;-77
2022/10/04 07:32:28;;;;;;;3.03;1.10;;;29.10;63.40;28.40;100384;;;;548569;261;23207;-77
2022/10/04 07:35:15;;;;;;;1.00;1.00;;;28.90;62.50;26.30;100384;;;;548458;261;23198;-78
2022/10/04 07:38:00;;;;;;;1.33;1.20;;;27.50;63.80;24.30;100386;;;;542924;261;23249;-76
2022/10/04 07:40:30;;;;;;;2.33;1.30;;;25.80;67.90;22.60;100395;;;;542860;261;23193;-78
2022/10/04 07:43:12;;;;;;;1.57;1.40;;;22.90;76.20;22.00;100393;;;;547964;261;24186;-76
2022/10/04 07:45:38;;;;;;;1.80;1.23;;;22.80;76.20;22.00;100389;;;;542671;261;24157;-76
2022/10/04 07:48:12;;;;;;;2.27;1.20;;;22.40;80.10;22.50;100393;;;;542305;261;24190;-76
2022/10/04 07:51:08;;;;;;;1.07;1.07;;;22.80;79.00;22.50;100396;;;;548139;261;24178;-76
2022/10/04 07:53:45;;;;;;;1.67;1.40;;;22.80;78.90;22.40;100408;;;;550513;259;24177;-77
2022/10/04 07:56:13;;;;;;;1.43;1.20;;;23.40;78.90;23.40;100399;;;;542186;261;24212;-76
2022/10/04 07:59:19;;;;;;;1.67;1.13;;;24.20;75.70;24.20;100403;;;;548197;261;23176;-76
2022/10/04 08:01:53;;;;;;;1.60;1.20;;;25.50;72.70;25.30;100408;;;;542163;261;23180;-77
2022/10/04 08:04:30;;;;;;;1.23;1.23;;;25.40;72.60;26.30;100413;;;;542498;259;24226;-77
2022/10/04 08:06:58;;;;;;;1.90;1.80;;;26.40;70.60;27.40;100419;;;;550319;260;23187;-76
2022/10/04 08:09:41;;;;;;;4.67;1.70;;;28.40;65.40;28.30;100418;;;;542452;256;24226;-77
2022/10/04 08:12:34;;;;;;;1.50;1.40;;;28.40;65.30;29.40;100411;;;;550286;255;24399;-76
2022/10/04 08:15:13;;;;;;;1.48;1.37;;;29.60;61.80;29.40;100422;;;;542423;261;23188;-77
2022/10/04 08:17:53;;;;;;;1.30;1.12;;;29.90;58.80;29.70;100421;;;;547612;261;23188;-78
2022/10/04 08:20:57;;;;;;;1.87;1.10;;;30.20;58.80;30.60;100438;;;;550221;256;23176;-79
2022/10/04 08:23:44;;;;;;;2.50;1.10;;;31.50;55.30;31.10;100434;;;;548034;261;23181;-76
2022/10/04 08:26:24;;;;;;;1.30;1.20;;;31.50;55.30;31.70;100447;;;;542175;261;23188;-78
2022/10/04 08:29:43;;;;;;;2.00;1.15;;;32.20;54.00;31.40;100442;;;;541621;261;23184;-80
2022/10/04 08:32:38;;;;;;;1.45;1.15;;;32.00;53.40;30.60;100452;;;;542237;261;23176;-78
2022/10/04 08:35:37;;;;;;;1.50;1.27;;;31.50;53.70;30.50;100451;;;;546396;259;35652;-79
2022/10/04 08:38:15;;;;;;;1.48;1.25;;;30.80;54.70;29.90;100463;;;;548358;261;23183;-77
2022/10/04 08:40:51;;;;;;;1.65;1.20;;;30.80;54.70;28.70;100459;;;;543239;261;24167;-83
2022/10/04 08:44:14;;;;;;;3.20;1.12;;;29.70;56.30;29.40;100458;;;;551139;257;23194;-81
2022/10/04 08:47:09;;;;;;;1.45;0.88;;;29.90;55.70;29.40;100468;;;;548545;261;23215;-80
2022/10/04 08:50:14;;;;;;;1.10;1.00;;;30.00;55.50;30.70;100463;;;;543061;259;23195;-83
2022/10/04 08:52:48;;;;;;;0.85;0.85;;;31.10;54.00;31.40;100480;;;;549887;257;23158;-84
2022/10/04 08:55:52;;;;;;;1.80;0.70;;;31.90;51.90;31.60;100474;;;;550630;260;23151;-84
2022/10/04 08:59:12;;;;;;;0.70;0.60;;;32.20;51.10;32.20;100481;;;;540925;264;23243;-80
2022/10/04 09:02:05;;;;;;;1.55;0.68;;;32.70;50.50;32.60;100488;;;;533414;263;23240;-83
2022/10/04 09:04:41;;;;;;;0.70;0.70;;;33.40;49.10;32.60;100486;;;;542665;261;23125;-83
2022/10/04 09:07:30;;;;;;;0.80;0.80;;;33.50;48.80;31.80;100493;;;;542625;260;23162;-83
2022/10/04 09:10:28;;;;;;;0.93;0.80;;;33.00;48.50;31.80;100494;;;;545983;261;23132;-84
2022/10/04 09:13:05;;;;;;;0.75;0.75;;;32.80;49.20;32.10;100502;;;;550290;258;23207;-85
2022/10/04 09:15:51;;;;;;;0.68;0.68;;;32.90;49.00;31.80;100494;;;;540306;265;23207;-83
2022/10/04 09:18:28;;;;;;;2.72;0.90;;;31.50;49.60;30.00;100497;;;;530794;265;35659;-85
2022/10/04 09:21:15;;;;;;;2.85;0.88;;;31.50;49.60;28.00;100500;;;;542110;261;23184;-83
2022/10/04 09:23:57;;;;;;;0.70;0.70;;;29.70;51.80;27.20;100501;;;;541760;261;23164;-84
2022/10/04 09:26:28;;;;;;;0.63;0.50;;;28.60;53.30;26.50;100511;;;;548577;261;23139;-76
2022/10/04 09:29:32;;;;;;;1.83;1.73;;;27.80;53.80;25.30;100504;;;;550541;255;23161;-77
2022/10/04 09:32:22;;;;;;;0.77;0.77;;;25.30;58.00;23.90;100507;;;;543014;260;24156;-78
2022/10/04 09:35:20;;;;;;;0.80;0.80;;;25.20;58.00;23.20;100507;;;;536734;265;24178;-77
2022/10/04 09:38:28;;;;;;;1.40;0.60;;;24.40;60.20;23.50;100520;;;;550005;261;23198;-81
2022/10/04 09:41:11;;;;;;;1.27;0.80;;;24.30;61.70;24.30;100518;;;;548044;261;23147;-76
2022/10/04 09:43:50;;;;;;;4.07;0.80;;;24.90;59.80;25.00;100529;;;;550712;259;24180;-79
2022/10/04 09:47:02;;;;;;;0.70;0.67;;;25.60;59.20;25.20;100530;;;;538983;265;23187;-76
2022/10/04 09:50:13;;;;;;;2.63;0.93;;;26.10;59.00;26.10;100532;;;;543087;261;23193;-76
2022/10/04 09:53:07;;;;;;;1.17;0.97;;;26.90;58.70;26.90;100534;;;;548600;261;23165;-77
2022/10/04 09:56:06;;;;;;;2.03;0.90;;;28.30;54.60;27.10;100547;;;;532960;265;23188;-78
2022/10/04 09:59:26;;;;;;;2.33;0.90;;;28.20;54.60;27.10;100555;;;;540851;265;24200;-76
2022/10/04 10:02:06;;;;;;;2.37;0.62;;;28.40;53.30;26.90;100553;;;;535758;265;23204;-76
2022/10/04 10:05:09;;;;;;;0.97;0.60;;;27.80;54.40;26.40;100539;;;;542647;261;23222;-76
2022/10/04 10:08:12;;;;;;;0.60;0.60;;;27.80;54.30;25.60;100547;;;;548066;260;23152;-75
2022/10/04 10:13:44;;;;;;;1.37;1.20;;;26.50;55.90;24.20;100546;;;;538140;261;23199;-78
2022/10/04 10:16:30;;;;;;;0.90;0.63;;;25.70;56.60;23.80;100552;;;;537611;266;24239;-79
2022/10/04 10:19:11;;;;;;;0.97;0.87;;;25.10;57.50;23.40;100553;;;;542089;261;24161;-78
2022/10/04 10:22:09;;;;;;;1.50;0.60;;;24.70;57.80;22.90;100562;;;;542273;261;24180;-76
2022/10/04 10:25:31;;;;;;;4.20;0.90;;;24.30;58.80;22.40;100557;;;;542254;260;24163;-76
2022/10/04 10:28:13;;;;;;;1.10;1.00;;;23.00;62.20;21.80;100560;;;;532543;265;24087;-76
2022/10/04 10:31:21;;;;;;;1.43;1.10;;;22.20;62.90;21.10;100551;;;;542026;259;24235;-75
2022/10/04 10:34:16;;;;;;;0.80;0.80;;;22.10;62.80;20.30;100549;;;;549796;260;24172;-76
2022/10/04 10:37:02;;;;;;;3.43;1.97;;;21.40;64.70;19.60;100558;;;;541634;260;24262;-76
2022/10/04 10:39:49;;;;;;;4.03;1.50;;;20.60;66.90;19.00;100561;;;;541959;261;24177;-76
2022/10/04 10:42:41;;;;;;;0.90;0.73;;;19.80;69.70;18.30;100562;;;;549452;260;24177;-80
2022/10/04 10:45:28;;;;;;;0.47;0.43;;;19.10;72.10;17.90;100555;;;;542182;261;24300;-75
2022/10/04 10:48:19;;;;;;;0.70;0.70;;;18.60;74.10;17.60;100554;;;;547863;260;24182;-75
2022/10/04 10:51:11;;;;;;;2.27;0.67;;;18.20;75.60;17.30;100561;;;;541410;261;24225;-80
2022/10/04 10:54:00;;;;;;;2.77;0.77;;;17.80;77.40;17.10;100576;;;;547475;261;24158;-76
2022/10/04 10:56:52;;;;;;;4.50;0.50;;;17.60;79.00;16.70;100571;;;;542072;259;24163;-78
2022/10/04 10:59:49;;;;;;;1.30;0.50;;;17.00;78.80;16.40;100566;;;;543410;260;24193;-76
2022/10/04 11:02:35;;;;;;;0.70;0.70;;;16.90;79.50;16.10;100573;;;;543224;260;24194;-78
2022/10/04 11:05:24;;;;;;;0.67;0.40;;;16.70;80.60;15.80;100572;;;;542335;261;24200;-78
2022/10/04 11:07:55;;;;;;;1.03;0.63;;;16.40;82.30;15.70;100583;;;;542568;261;24196;-76
2022/10/04 11:10:53;;;;;;;0.73;0.50;;;16.10;84.00;15.50;100588;;;;542500;261;24269;-76
2022/10/04 11:13:37;;;;;;;2.83;0.80;;;16.10;85.00;15.40;100586;;;;543483;261;24207;-75
2022/10/04 11:16:50;;;;;;;2.37;1.17;;;15.90;85.50;15.40;100579;;;;542632;261;24175;-75
2022/10/04 11:19:28;;;;;;;1.70;0.50;;;15.90;86.00;15.30;100587;;;;548091;261;24147;-75
2022/10/04 11:22:29;;;;;;;0.70;0.67;;;15.80;86.00;15.30;100586;;;;550576;254;24232;-75
2022/10/04 11:25:43;;;;;;;1.10;0.60;;;15.80;87.50;15.30;100598;;;;550360;256;24178;-75
2022/10/04 11:28:31;;;;;;;2.43;0.33;;;15.80;87.90;15.50;100596;;;;541955;264;24214;-78
2022/10/04 11:31:08;;;;;;;0.40;0.40;;;15.90;89.30;15.60;100596;;;;542436;260;24135;-74
2022/10/04 11:34:00;;;;;;;0.80;0.57;;;16.10;89.60;15.70;100593;;;;539334;265;24201;-76
2022/10/04 11:36:37;;;;;;;3.90;0.60;;;16.20;89.10;15.70;100600;;;;534902;265;24213;-76
2022/10/04 11:39:16;;;;;;;0.63;0.40;;;16.20;84.90;15.50;100590;;;;542336;261;24216;-75
2022/10/04 11:41:49;;;;;;;1.70;0.40;;;16.10;84.70;15.30;100593;;;;542121;261;24141;-76
2022/10/04 11:44:15;;;;;;;1.60;0.30;;;16.00;85.90;15.20;100589;;;;540334;261;24183;-78
2022/10/04 11:46:54;;;;;;;1.50;1.40;;;15.80;85.60;15.10;100594;;;;536854;266;24243;-76
2022/10/04 11:49:28;;;;;;;0.33;0.33;;;15.60;86.60;15.00;100596;;;;550581;261;24185;-75
2022/10/04 11:52:52;;;;;;;0.50;0.40;;;15.60;88.00;15.00;100597;;;;539287;261;24218;-79
2022/10/04 11:55:36;;;;;;;0.87;0.33;;;15.50;89.30;14.90;100595;;;;537808;266;24169;-85
2022/10/04 11:58:52;;;;;;;0.33;0.33;;;15.50;89.90;14.90;100600;;;;532498;265;24244;-82
2022/10/04 12:01:53;;;;;;;0.37;0.37;;;15.40;89.60;14.80;100581;;;;550117;259;24133;-79
2022/10/04 12:04:30;;;;;;;0.67;0.33;;;15.40;88.40;14.70;100578;;;;541592;261;24230;-85
2022/10/04 12:07:41;;;;;;;0.37;0.37;;;15.30;89.60;14.70;100588;;;;540094;264;24220;-79
2022/10/04 12:10:24;;;;;;;1.43;0.60;;;15.30;90.20;14.70;100586;;;;533604;265;24197;-79
2022/10/04 12:12:52;;;;;;;0.63;0.63;;;15.30;91.10;14.70;100596;;;;549555;257;24180;-81
2022/10/04 12:15:34;;;;;;;0.70;0.60;;;15.20;91.40;14.60;100580;;;;542901;261;25198;-82
2022/10/04 12:18:04;;;;;;;0.20;0.20;;;15.20;91.40;14.60;100583;;;;551059;260;24187;-77
2022/10/04 12:20:42;;;;;;;0.67;0.30;;;15.10;91.70;14.50;100583;;;;532216;265;24162;-77
2022/10/04 12:23:30;;;;;;;0.80;0.40;;;15.00;91.70;14.40;100587;;;;535310;265;24164;-75
2022/10/04 12:26:14;;;;;;;2.47;0.63;;;15.00;92.60;14.50;100581;;;;542679;261;24162;-75